hwlogo.jpg (8581 bytes)
Home Your Weather Products Services Weather On Your Site Contact
HW Version Logo
Weather Info
Your Weather (Options)
Canadian Weather
International Weather
Enter your " Place, State", US Zip Code or ICAO:  
Forecast Information Radar Information
Dauphin, Manitoba, Canada  Lat: 51.08N, Lon: 100.05W
ICAO Used: CYDN
Current Conditions
Updated: 11:00 PM CST SUN FEB 18 2018
Sun & Moon Information
Clear
Clear
Temp: -27°C
Humidity: 75%
Wind Speed: W 5 MPH
Barometer: 1023 mb
Dewpoint: -30°C
Heat Index: -27°C
Wind Chill: -34°C
Civil Twilight: 7:14 AM CST Moon Phase:
Waxing Crescent Moon
Sunrise: 7:48 AM CST
Sunset: 5:59 PM CST
Civil Twilight: 6:33 PM CST
Forecast for Dauphin, MB:
(Forecast based on TAF for )
0042 AM CST MON FEB 19 2018
  
OVERNIGHT MORNING AFTERNOON
Clear Clear Clear
ZoneCast:
Dated: 0042 AM CST MON FEB 19 2018
Overnight...Clear with winds from the west at 3 mph.

Morning...Clear with winds from the west at 3 mph.

Afternoon...Clear with winds from the west at 3 mph.

Original Encoded TAF:
Dated: 0042 AM CST MON FEB 19 2018
2018/02/19 06:42
TAF CYDN 190538Z 1906/1918 28003KT P6SM SKC 
      RMK FCST BASED ON AUTO OBS. NXT FCST BY 191200Z